createdAt,value
2017-05-11T00:00:28.215Z,0
2017-05-11T00:01:09.038Z,0
2017-05-11T00:01:49.852Z,0
2017-05-11T00:02:30.586Z,0
2017-05-11T00:03:11.344Z,0
2017-05-11T00:03:52.040Z,0
2017-05-11T00:04:32.912Z,0
2017-05-11T00:05:13.567Z,0
2017-05-11T00:05:54.260Z,0
2017-05-11T00:06:34.904Z,0
2017-05-11T00:07:15.589Z,0
2017-05-11T00:07:56.305Z,0
2017-05-11T00:08:36.998Z,0
2017-05-11T00:09:17.688Z,0
2017-05-11T00:09:58.396Z,0
2017-05-11T00:10:39.133Z,0
2017-05-11T00:11:20.915Z,0
2017-05-11T00:12:01.659Z,0
2017-05-11T00:12:42.374Z,0
2017-05-11T00:13:22.999Z,0
2017-05-11T00:14:03.696Z,0
2017-05-11T00:14:44.463Z,0
2017-05-11T00:15:25.078Z,0
2017-05-11T00:16:05.842Z,0
2017-05-11T00:16:46.616Z,0
2017-05-11T00:17:27.326Z,0
2017-05-11T00:18:07.996Z,0
2017-05-11T00:18:48.749Z,0
2017-05-11T00:19:29.404Z,0
2017-05-11T00:20:09.991Z,0
2017-05-11T00:20:50.774Z,0
2017-05-11T00:21:31.479Z,0
2017-05-11T00:22:12.127Z,0
2017-05-11T00:22:52.778Z,0
2017-05-11T00:23:33.580Z,0
2017-05-11T00:24:15.201Z,0
2017-05-11T00:24:55.863Z,0
2017-05-11T00:25:36.582Z,0
2017-05-11T00:26:17.293Z,0
2017-05-11T00:26:58.041Z,0
2017-05-11T00:27:38.831Z,0
2017-05-11T00:28:19.837Z,0
2017-05-11T00:29:00.472Z,0
2017-05-11T00:29:41.133Z,0
2017-05-11T00:30:22.816Z,0
2017-05-11T00:31:03.471Z,0
2017-05-11T00:31:44.087Z,0
2017-05-11T00:32:24.755Z,0
2017-05-11T00:33:05.407Z,0
2017-05-11T00:33:46.052Z,0
2017-05-11T00:34:26.619Z,0
2017-05-11T00:35:07.264Z,0
2017-05-11T00:35:47.917Z,0
2017-05-11T00:36:28.511Z,0
2017-05-11T00:37:09.106Z,0
2017-05-11T00:37:49.766Z,0
2017-05-11T00:38:30.417Z,0
2017-05-11T00:39:11.057Z,0
2017-05-11T00:39:51.729Z,0
2017-05-11T00:40:32.374Z,0
2017-05-11T00:41:13.069Z,0
2017-05-11T00:41:53.708Z,0
2017-05-11T00:42:34.353Z,0
2017-05-11T00:43:15.006Z,0
2017-05-11T00:43:55.648Z,0
2017-05-11T00:44:36.334Z,0
2017-05-11T00:45:17.056Z,0
2017-05-11T00:45:57.725Z,0
2017-05-11T00:46:38.372Z,0
2017-05-11T00:47:19.015Z,0
2017-05-11T00:47:59.702Z,0
2017-05-11T00:48:40.325Z,0
2017-05-11T00:49:21.011Z,0
2017-05-11T00:50:01.624Z,0
2017-05-11T00:50:42.416Z,0
2017-05-11T00:51:23.021Z,0
2017-05-11T00:52:03.721Z,0
2017-05-11T00:52:44.354Z,0
2017-05-11T00:53:25.030Z,0
2017-05-11T00:54:05.654Z,0
2017-05-11T00:54:47.349Z,0
2017-05-11T00:55:27.984Z,0
2017-05-11T00:56:08.672Z,0
2017-05-11T00:56:49.289Z,0
2017-05-11T00:57:29.942Z,0
2017-05-11T00:58:10.588Z,0
2017-05-11T00:58:51.228Z,0
2017-05-11T00:59:31.887Z,0
2017-05-11T01:00:12.525Z,0
2017-05-11T01:00:54.268Z,0
2017-05-11T01:01:34.862Z,0
2017-05-11T01:02:15.524Z,0
2017-05-11T01:02:56.195Z,0
2017-05-11T01:03:37.850Z,0
2017-05-11T01:04:18.509Z,0
2017-05-11T01:04:59.161Z,0
2017-05-11T01:05:39.815Z,0
2017-05-11T01:06:20.468Z,0
2017-05-11T01:07:01.115Z,0
2017-05-11T01:07:41.776Z,0
2017-05-11T01:08:22.411Z,0
2017-05-11T01:09:03.101Z,0
2017-05-11T01:09:43.728Z,0
2017-05-11T01:10:24.375Z,0
2017-05-11T01:11:05.040Z,0
2017-05-11T01:11:45.688Z,0
2017-05-11T01:12:26.332Z,0
2017-05-11T01:13:06.897Z,0
2017-05-11T01:13:47.548Z,0
2017-05-11T01:14:28.208Z,0
2017-05-11T01:15:08.781Z,0
2017-05-11T01:15:49.417Z,0
2017-05-11T01:16:30.054Z,0
2017-05-11T01:17:10.648Z,0
2017-05-11T01:17:51.272Z,0
2017-05-11T01:18:31.910Z,0
2017-05-11T01:19:13.595Z,0
2017-05-11T01:19:54.260Z,0
2017-05-11T01:20:34.911Z,0
2017-05-11T01:21:15.549Z,0
2017-05-11T01:21:56.205Z,0
2017-05-11T01:22:36.853Z,0
2017-05-11T01:23:17.507Z,0
2017-05-11T01:23:58.151Z,0
2017-05-11T01:24:38.816Z,0
2017-05-11T01:25:19.463Z,0
2017-05-11T01:26:01.144Z,0
2017-05-11T01:26:41.789Z,0
2017-05-11T01:27:22.447Z,0
2017-05-11T01:28:03.118Z,0
2017-05-11T01:28:43.788Z,0
2017-05-11T01:29:24.366Z,0
2017-05-11T01:30:04.970Z,0
2017-05-11T01:30:45.619Z,0
2017-05-11T01:31:26.297Z,0
2017-05-11T01:32:06.898Z,0
2017-05-11T01:32:47.466Z,0
2017-05-11T01:33:28.132Z,0
2017-05-11T01:34:08.778Z,0
2017-05-11T01:34:49.423Z,0
2017-05-11T01:35:30.064Z,0
2017-05-11T01:36:10.734Z,0
2017-05-11T01:36:51.389Z,0
2017-05-11T01:37:32.052Z,0
2017-05-11T01:38:12.703Z,0
2017-05-11T01:38:53.370Z,0
2017-05-11T01:39:34.007Z,0
2017-05-11T01:40:14.652Z,0
2017-05-11T01:40:55.344Z,0
2017-05-11T01:41:35.968Z,0
2017-05-11T03:13:39.109Z,0
2017-05-11T03:14:19.776Z,0
2017-05-11T03:15:01.447Z,0
2017-05-11T03:15:43.119Z,0
2017-05-11T03:16:23.791Z,0
2017-05-11T03:17:04.429Z,0
2017-05-11T03:17:45.080Z,0
2017-05-11T03:18:25.741Z,0
2017-05-11T03:19:06.381Z,0
2017-05-11T03:19:47.045Z,0
2017-05-11T03:20:27.710Z,0
2017-05-11T03:21:08.348Z,0
2017-05-11T03:21:49.020Z,0
2017-05-11T03:22:29.658Z,0
2017-05-11T03:23:10.320Z,0
2017-05-11T03:23:51.105Z,0
2017-05-11T03:24:31.706Z,0
2017-05-11T03:25:12.283Z,0
2017-05-11T03:25:52.918Z,0
2017-05-11T03:26:33.513Z,0
2017-05-11T03:27:14.119Z,0
2017-05-11T03:27:54.779Z,0
2017-05-11T03:28:35.432Z,0
2017-05-11T03:29:16.014Z,0
2017-05-11T03:29:56.652Z,0
2017-05-11T03:30:37.303Z,0
2017-05-11T03:31:17.857Z,0
2017-05-11T03:31:58.530Z,0
2017-05-11T03:32:40.193Z,0
2017-05-11T03:33:20.798Z,0
2017-05-11T03:34:01.352Z,0
2017-05-11T03:34:42.042Z,0
2017-05-11T03:35:22.726Z,0
2017-05-11T03:36:03.300Z,0
2017-05-11T03:36:43.977Z,0
2017-05-11T03:37:24.633Z,0
2017-05-11T03:38:05.244Z,0
2017-05-11T03:38:45.831Z,0
2017-05-11T03:39:26.468Z,0
2017-05-11T03:40:07.184Z,0
2017-05-11T03:40:47.836Z,0
2017-05-11T03:41:28.388Z,5
2017-05-11T03:42:09.059Z,5
2017-05-11T03:42:49.696Z,5
2017-05-11T03:43:30.368Z,5
2017-05-11T03:44:11.014Z,5
2017-05-11T03:44:51.671Z,5
2017-05-11T03:45:32.308Z,5
2017-05-11T03:46:12.972Z,5
2017-05-11T03:46:53.644Z,5
2017-05-11T03:47:34.269Z,5
2017-05-11T03:48:14.934Z,5
2017-05-11T03:48:55.587Z,5
2017-05-11T03:49:36.226Z,5
2017-05-11T03:50:16.882Z,5
2017-05-11T03:50:57.563Z,10
2017-05-11T03:51:38.186Z,10
2017-05-11T03:52:18.838Z,10
2017-05-11T03:52:59.524Z,10
2017-05-11T03:53:42.757Z,10
2017-05-11T03:54:23.435Z,10
2017-05-11T03:55:04.083Z,10
2017-05-11T03:55:44.755Z,10
2017-05-11T03:56:25.391Z,10
2017-05-11T03:57:06.049Z,10
2017-05-11T03:57:46.690Z,15
2017-05-11T03:58:27.393Z,15
2017-05-11T03:59:08.004Z,15
2017-05-11T03:59:48.654Z,15
2017-05-11T04:00:29.299Z,15
2017-05-11T04:01:09.922Z,15
2017-05-11T04:01:50.523Z,15
2017-05-11T04:02:31.174Z,20
2017-05-11T04:03:11.817Z,20
2017-05-11T04:03:52.465Z,20
2017-05-11T04:04:33.138Z,20
2017-05-11T04:05:13.790Z,20
2017-05-11T04:05:54.423Z,20
2017-05-11T04:06:35.064Z,25
2017-05-11T04:07:15.730Z,25
2017-05-11T04:07:56.382Z,25
2017-05-11T04:08:36.974Z,25
2017-05-11T04:09:17.550Z,25
2017-05-11T04:09:59.204Z,25
2017-05-11T04:10:39.801Z,30
2017-05-11T04:11:20.410Z,30
2017-05-11T04:12:00.966Z,30
2017-05-11T04:12:42.587Z,30
2017-05-11T04:13:23.242Z,30
2017-05-11T04:14:04.837Z,30
2017-05-11T04:14:45.486Z,30
2017-05-11T04:15:26.144Z,35
2017-05-11T04:16:06.778Z,35
2017-05-11T04:16:47.461Z,35
2017-05-11T04:17:28.082Z,35
2017-05-11T04:18:09.766Z,35
2017-05-11T04:18:50.415Z,35
2017-05-11T04:19:31.074Z,35
2017-05-11T04:20:11.722Z,40
2017-05-11T04:20:52.371Z,40
2017-05-11T04:55:22.683Z,75
2017-05-11T04:56:03.251Z,75
2017-05-11T04:56:43.883Z,75
2017-05-11T04:57:24.540Z,75
2017-05-11T04:58:05.095Z,75
2017-05-11T04:58:45.723Z,75
2017-05-11T04:59:27.438Z,80
2017-05-11T05:00:10.083Z,80
2017-05-11T05:00:50.656Z,80
2017-05-11T05:01:31.319Z,80
2017-05-11T05:02:11.979Z,80
2017-05-11T05:02:52.674Z,80
2017-05-11T05:03:33.229Z,85
2017-05-11T05:04:14.853Z,85
2017-05-11T05:04:55.528Z,85
2017-05-11T05:05:38.236Z,85
2017-05-11T05:06:18.860Z,85
2017-05-11T05:06:59.531Z,85
2017-05-11T05:07:40.206Z,85
2017-05-11T05:08:20.841Z,85
2017-05-11T05:09:01.902Z,85
2017-05-11T05:09:42.437Z,90
2017-05-11T05:10:24.128Z,90
2017-05-11T05:11:04.785Z,90
2017-05-11T05:11:45.350Z,90
2017-05-11T05:12:25.968Z,90
2017-05-11T05:13:06.683Z,90
2017-05-11T05:13:47.253Z,90
2017-05-11T05:14:27.945Z,90
2017-05-11T05:15:10.607Z,90
2017-05-11T05:15:51.314Z,90
2017-05-11T05:16:33.019Z,90
2017-05-11T05:17:13.635Z,90
2017-05-11T05:17:54.270Z,90
2017-05-11T05:18:34.987Z,90
2017-05-11T05:19:15.594Z,90
2017-05-11T05:19:58.345Z,95
2017-05-11T05:20:39.042Z,95
2017-05-11T05:21:21.803Z,95
2017-05-11T05:22:02.406Z,95
2017-05-11T05:22:47.872Z,100
2017-05-11T05:23:28.542Z,100
2017-05-11T05:24:09.210Z,100
2017-05-11T05:24:49.757Z,100
2017-05-11T05:25:35.167Z,100
2017-05-11T05:26:15.843Z,100
2017-05-11T05:26:56.461Z,100
2017-05-11T05:27:37.048Z,100
2017-05-11T05:28:18.784Z,100
2017-05-11T05:28:59.540Z,100
2017-05-11T05:29:41.242Z,100
2017-05-11T05:30:22.957Z,100
2017-05-11T05:31:04.663Z,105
2017-05-11T05:31:45.369Z,105
2017-05-11T05:32:26.074Z,105
2017-05-11T05:33:08.722Z,105
2017-05-11T05:33:49.406Z,105
2017-05-11T05:34:30.025Z,105
2017-05-11T05:35:11.701Z,105
2017-05-11T05:35:52.360Z,105
2017-05-11T05:36:33.043Z,105
2017-05-11T05:37:13.656Z,105
2017-05-11T05:37:55.415Z,105
2017-05-11T05:38:38.135Z,105
2017-05-11T05:39:18.803Z,105
2017-05-11T05:40:00.474Z,105
2017-05-11T05:40:43.239Z,110
2017-05-11T05:41:23.931Z,110
2017-05-11T05:42:06.612Z,110
2017-05-11T05:42:52.963Z,110
2017-05-11T05:43:34.583Z,110
2017-05-11T05:44:17.297Z,110
2017-05-11T05:44:59.072Z,110
2017-05-11T05:45:41.872Z,110
2017-05-11T05:46:24.662Z,110
2017-05-11T05:47:05.471Z,105
2017-05-11T05:47:46.172Z,105
2017-05-11T05:48:26.927Z,105
2017-05-11T05:49:07.704Z,105
2017-05-11T05:49:48.591Z,100
2017-05-11T05:50:29.265Z,105
2017-05-11T05:51:10.997Z,110
2017-05-11T05:51:51.754Z,110
2017-05-11T05:52:33.548Z,110
2017-05-11T05:53:14.213Z,110
2017-05-11T05:53:55.941Z,110
2017-05-11T05:54:36.675Z,110
2017-05-11T05:55:18.403Z,110
2017-05-11T05:56:01.050Z,115
2017-05-11T05:56:41.845Z,115
2017-05-11T05:57:22.510Z,110
2017-05-11T05:58:03.287Z,110
2017-05-11T05:58:44.093Z,115
2017-05-11T05:59:24.857Z,115
2017-05-11T06:00:05.499Z,110
2017-05-11T06:00:47.180Z,115
2017-05-11T06:01:27.911Z,115
2017-05-11T06:02:09.714Z,115
2017-05-11T06:02:50.379Z,115
2017-05-11T06:03:31.212Z,115
2017-05-11T06:04:12.027Z,115
2017-05-11T06:04:58.553Z,115
2017-05-11T06:05:40.272Z,115
2017-05-11T06:06:20.991Z,115
2017-05-11T06:07:01.774Z,115
2017-05-11T06:07:42.521Z,115
2017-05-11T06:08:23.157Z,115
2017-05-11T06:09:03.908Z,115
2017-05-11T06:09:45.613Z,115
2017-05-11T06:10:26.254Z,115
2017-05-11T06:11:06.961Z,115
2017-05-11T06:11:49.705Z,115
2017-05-11T06:12:30.415Z,115
2017-05-11T06:13:11.143Z,115
2017-05-11T06:13:51.813Z,115
2017-05-11T06:14:33.548Z,110
2017-05-11T06:15:20.310Z,110
2017-05-11T06:16:00.992Z,110
2017-05-11T06:16:42.733Z,115
2017-05-11T06:17:24.462Z,115
2017-05-11T06:18:06.116Z,115
2017-05-11T06:18:46.888Z,120
2017-05-11T06:19:27.568Z,120
2017-05-11T06:20:08.322Z,115
2017-05-11T06:20:48.940Z,115
2017-05-11T06:21:30.806Z,120
2017-05-11T06:22:11.462Z,120
2017-05-11T06:22:52.159Z,120
2017-05-11T06:23:32.787Z,120
2017-05-11T06:24:14.578Z,120
2017-05-11T06:24:55.255Z,120
2017-05-11T06:25:35.971Z,120
2017-05-11T06:26:18.731Z,120
2017-05-11T06:27:00.483Z,125
2017-05-11T06:27:41.221Z,120
2017-05-11T06:28:21.859Z,120
2017-05-11T06:29:02.543Z,120
2017-05-11T06:29:43.381Z,120
2017-05-11T06:30:24.147Z,120
2017-05-11T06:31:04.815Z,120
2017-05-11T06:31:45.610Z,120
2017-05-11T06:32:26.355Z,115
2017-05-11T06:33:07.084Z,115
2017-05-11T06:33:47.833Z,115
2017-05-11T06:34:29.480Z,115
2017-05-11T06:35:10.184Z,115
2017-05-11T06:35:55.803Z,120
2017-05-11T06:36:36.549Z,120
2017-05-11T06:37:17.248Z,120
2017-05-11T06:37:57.888Z,120
2017-05-11T06:38:39.568Z,120
2017-05-11T06:39:21.539Z,120
2017-05-11T06:40:02.166Z,120
2017-05-11T06:40:42.893Z,120
2017-05-11T06:41:24.672Z,120
2017-05-11T06:42:05.339Z,120
2017-05-11T06:42:46.076Z,120
2017-05-11T06:43:26.866Z,120
2017-05-11T06:44:07.552Z,120
2017-05-11T06:44:48.297Z,115
2017-05-11T06:45:31.056Z,120
2017-05-11T06:46:11.808Z,125
2017-05-11T06:46:52.415Z,120
2017-05-11T06:47:33.118Z,120
2017-05-11T06:48:13.812Z,120
2017-05-11T06:48:54.554Z,120
2017-05-11T06:49:35.182Z,120
2017-05-11T06:50:15.911Z,120
2017-05-11T06:50:57.637Z,120
2017-05-11T06:51:39.359Z,120
2017-05-11T06:52:20.010Z,120
2017-05-11T06:53:00.736Z,120
2017-05-11T06:53:41.425Z,120
2017-05-11T06:54:22.080Z,120
2017-05-11T06:55:02.824Z,120
2017-05-11T06:55:43.478Z,120
2017-05-11T06:56:24.228Z,120
2017-05-11T06:57:06.013Z,120
2017-05-11T06:57:46.702Z,120
2017-05-11T06:58:28.380Z,120
2017-05-11T06:59:09.083Z,125
2017-05-11T06:59:50.771Z,125
2017-05-11T07:00:31.394Z,125
2017-05-11T07:01:13.159Z,125
2017-05-11T07:01:53.902Z,125
2017-05-11T07:02:35.641Z,120
2017-05-11T07:03:16.347Z,125
2017-05-11T07:03:57.054Z,125
2017-05-11T07:04:37.800Z,125
2017-05-11T07:05:20.457Z,120
2017-05-11T07:06:02.178Z,120
2017-05-11T07:06:44.949Z,120
2017-05-11T07:07:25.648Z,120
2017-05-11T07:08:06.588Z,120
2017-05-11T07:08:52.217Z,120
2017-05-11T07:09:32.921Z,120
2017-05-11T07:10:13.647Z,115
2017-05-11T07:10:54.342Z,115
2017-05-11T07:11:35.029Z,110
2017-05-11T07:12:15.658Z,115
2017-05-11T07:12:56.369Z,115
2017-05-11T07:13:37.095Z,115
2017-05-11T07:14:18.902Z,120
2017-05-11T07:14:59.658Z,115
2017-05-11T07:15:40.394Z,120
2017-05-11T07:16:21.092Z,120
2017-05-11T07:17:01.808Z,120
2017-05-11T07:17:43.482Z,125
2017-05-11T07:18:24.200Z,125
2017-05-11T07:19:04.878Z,130
2017-05-11T07:19:45.633Z,130
2017-05-11T07:20:26.380Z,130
2017-05-11T07:21:07.108Z,130
2017-05-11T07:21:47.770Z,135
2017-05-11T07:22:28.410Z,135
2017-05-11T07:23:09.096Z,140
2017-05-11T07:23:49.757Z,140
2017-05-11T07:24:30.483Z,140
2017-05-11T07:25:11.159Z,140
2017-05-11T07:25:51.802Z,140
2017-05-11T07:26:32.480Z,145
2017-05-11T07:27:14.239Z,140
2017-05-11T07:27:54.917Z,140
2017-05-11T07:28:35.567Z,140
2017-05-11T07:29:16.359Z,140
2017-05-11T07:29:57.072Z,140
2017-05-11T07:30:38.843Z,140
2017-05-11T07:31:19.601Z,140
2017-05-11T07:32:00.229Z,140
2017-05-11T07:32:40.872Z,140
2017-05-11T07:33:22.590Z,140
2017-05-11T07:34:04.374Z,140
2017-05-11T07:34:44.998Z,140
2017-05-11T07:35:25.673Z,135
2017-05-11T07:36:06.594Z,135
2017-05-11T07:36:47.276Z,135
2017-05-11T07:37:28.001Z,135
2017-05-11T07:38:09.780Z,135
2017-05-11T07:38:51.485Z,135
2017-05-11T07:39:32.255Z,135
2017-05-11T07:40:12.875Z,130
2017-05-11T07:40:54.683Z,130
2017-05-11T07:41:35.323Z,130
2017-05-11T07:42:15.996Z,130
2017-05-11T07:42:56.618Z,130
2017-05-11T07:43:37.269Z,125
2017-05-11T07:44:18.006Z,125
2017-05-11T07:44:58.722Z,125
2017-05-11T07:45:39.309Z,125
2017-05-11T07:46:20.035Z,125
2017-05-11T07:47:01.782Z,120
2017-05-11T07:47:42.431Z,120
2017-05-11T07:48:23.068Z,120
2017-05-11T07:49:08.226Z,120
2017-05-11T07:49:48.879Z,120
2017-05-11T07:50:29.551Z,115
2017-05-11T07:51:11.206Z,115
2017-05-11T07:51:52.016Z,115
2017-05-11T07:52:32.744Z,115
2017-05-11T07:53:13.469Z,115
2017-05-11T07:53:54.300Z,110
2017-05-11T07:54:34.900Z,110
2017-05-11T07:55:15.629Z,110
2017-05-11T07:55:56.386Z,110
2017-05-11T07:56:37.009Z,110
2017-05-11T07:57:17.706Z,110
2017-05-11T07:57:58.666Z,105
2017-05-11T07:58:39.567Z,105
2017-05-11T07:59:20.527Z,105
2017-05-11T08:00:02.161Z,105
2017-05-11T08:00:43.835Z,105
2017-05-11T08:01:29.501Z,105
2017-05-11T08:02:10.153Z,105
2017-05-11T08:02:50.804Z,105
2017-05-11T08:03:31.483Z,105
2017-05-11T08:04:12.100Z,105
2017-05-11T08:04:52.861Z,105
2017-05-11T08:05:33.523Z,105
2017-05-11T08:06:16.271Z,105
2017-05-11T08:07:01.505Z,105
2017-05-11T08:07:42.277Z,105
2017-05-11T08:08:23.042Z,105
2017-05-11T08:09:03.740Z,105
2017-05-11T08:09:44.393Z,105
2017-05-11T08:10:25.045Z,105
2017-05-11T08:11:05.792Z,100
2017-05-11T08:11:47.457Z,100
2017-05-11T08:12:28.162Z,100
2017-05-11T08:13:09.838Z,100
2017-05-11T08:13:50.619Z,100
2017-05-11T08:14:37.086Z,100
2017-05-11T08:15:17.912Z,100
2017-05-11T08:15:58.565Z,100
2017-05-11T08:16:39.259Z,100
2017-05-11T08:17:34.500Z,100
2017-05-11T08:18:25.700Z,100
2017-05-11T08:19:06.358Z,100
2017-05-11T08:19:59.724Z,100
2017-05-11T08:20:46.297Z,100
2017-05-11T08:21:27.075Z,100
2017-05-11T08:22:07.797Z,100
2017-05-11T08:22:48.443Z,100
2017-05-11T08:23:29.150Z,100
2017-05-11T08:24:09.900Z,100
2017-05-11T08:24:51.674Z,100
2017-05-11T08:25:34.361Z,100
2017-05-11T08:26:15.007Z,100
2017-05-11T08:26:56.658Z,100
2017-05-11T08:27:37.516Z,100
2017-05-11T08:28:18.286Z,100
2017-05-11T08:28:58.930Z,100
2017-05-11T08:29:39.553Z,100
2017-05-11T08:30:22.468Z,100
2017-05-11T08:31:03.141Z,100
2017-05-11T08:31:45.850Z,100
2017-05-11T08:32:26.576Z,100
2017-05-11T08:33:07.287Z,100
2017-05-11T08:33:50.098Z,100
2017-05-11T08:34:31.009Z,100
2017-05-11T08:35:12.697Z,100
2017-05-11T08:35:53.465Z,100
2017-05-11T08:36:35.229Z,100
2017-05-11T08:37:16.015Z,100
2017-05-11T08:37:57.618Z,100
2017-05-11T08:38:42.992Z,100
2017-05-11T08:39:23.670Z,100
2017-05-11T08:40:11.000Z,100
2017-05-11T08:40:51.660Z,100
2017-05-11T08:41:32.316Z,100
2017-05-11T08:42:12.961Z,100
2017-05-11T08:42:53.621Z,100
2017-05-11T08:43:40.932Z,100
2017-05-11T08:44:21.554Z,100
2017-05-11T08:45:02.310Z,100
2017-05-11T08:45:42.992Z,100
2017-05-11T08:46:23.828Z,100
2017-05-11T08:47:05.542Z,100
2017-05-11T08:47:46.286Z,100
2017-05-11T08:48:27.036Z,100
2017-05-11T08:49:07.736Z,100
2017-05-11T08:49:48.548Z,100
2017-05-11T08:50:29.240Z,100
2017-05-11T08:51:09.883Z,100
2017-05-11T08:51:51.679Z,100
2017-05-11T08:52:32.546Z,100
2017-05-11T08:53:13.304Z,100
2017-05-11T08:53:54.045Z,100
2017-05-11T08:54:34.775Z,100
2017-05-11T08:55:15.531Z,100
2017-05-11T08:55:56.339Z,100
2017-05-11T08:56:39.076Z,100
2017-05-11T08:57:19.895Z,100
2017-05-11T08:58:02.665Z,100
2017-05-11T08:58:43.474Z,100
2017-05-11T08:59:24.262Z,100
2017-05-11T09:00:05.025Z,100
2017-05-11T09:00:45.781Z,100
2017-05-11T09:01:27.536Z,100
2017-05-11T09:02:08.229Z,100
2017-05-11T09:02:49.021Z,100
2017-05-11T09:03:30.769Z,70
2017-05-11T09:04:15.259Z,100
2017-05-11T09:04:55.942Z,100
2017-05-11T09:05:36.633Z,100
2017-05-11T09:06:17.415Z,100
2017-05-11T09:06:58.149Z,100
2017-05-11T09:07:38.767Z,100
2017-05-11T09:08:19.470Z,100
2017-05-11T09:09:00.168Z,100
2017-05-11T09:09:40.888Z,100
2017-05-11T09:10:21.629Z,100
2017-05-11T09:11:02.281Z,100
2017-05-11T09:11:42.987Z,100
2017-05-11T09:12:23.655Z,100
2017-05-11T09:13:04.441Z,100
2017-05-11T09:13:45.090Z,100
2017-05-11T09:14:26.830Z,100
2017-05-11T09:15:09.524Z,100
2017-05-11T09:15:50.310Z,100
2017-05-11T09:16:30.990Z,100
2017-05-11T09:17:12.770Z,100
2017-05-11T09:17:53.511Z,100
2017-05-11T09:18:34.261Z,100
2017-05-11T09:19:14.934Z,100
2017-05-11T09:19:55.667Z,100
2017-05-11T09:20:36.437Z,100
2017-05-11T09:21:17.101Z,100
2017-05-11T09:21:58.856Z,100
2017-05-11T09:22:39.536Z,100
2017-05-11T09:23:20.306Z,100
2017-05-11T09:24:01.121Z,100
2017-05-11T09:24:43.957Z,100
2017-05-11T09:25:25.616Z,100
2017-05-11T09:26:06.206Z,100
2017-05-11T09:26:48.882Z,100
2017-05-11T09:27:29.538Z,105
2017-05-11T09:28:11.240Z,105
2017-05-11T09:28:52.029Z,105
2017-05-11T09:29:32.775Z,105
2017-05-11T09:30:13.407Z,105
2017-05-11T09:30:54.071Z,105
2017-05-11T09:31:34.868Z,105
2017-05-11T09:32:15.668Z,105
2017-05-11T09:32:56.305Z,105
2017-05-11T09:33:37.033Z,105
2017-05-11T09:36:49.626Z,105
2017-05-11T09:37:31.378Z,105
2017-05-11T09:38:12.100Z,105
2017-05-11T09:38:52.791Z,105
2017-05-11T09:39:34.419Z,110
2017-05-11T09:40:15.084Z,105
2017-05-11T09:40:55.825Z,105
2017-05-11T09:41:36.495Z,105
2017-05-11T09:42:17.170Z,110
2017-05-11T09:43:02.727Z,110
2017-05-11T09:43:44.376Z,110
2017-05-11T09:44:24.988Z,110
2017-05-11T09:45:05.666Z,110
2017-05-11T09:45:46.387Z,110
2017-05-11T09:46:28.141Z,110
2017-05-11T09:47:08.858Z,110
2017-05-11T09:47:50.624Z,110
2017-05-11T09:48:33.389Z,110
2017-05-11T09:49:14.123Z,110
2017-05-11T09:49:54.843Z,110
2017-05-11T09:50:35.568Z,105
2017-05-11T09:51:21.295Z,105
2017-05-11T09:52:03.099Z,105
2017-05-11T09:52:43.755Z,105
2017-05-11T09:53:24.637Z,110
2017-05-11T09:54:07.314Z,110
2017-05-11T09:54:49.047Z,110
2017-05-11T09:55:29.803Z,110
2017-05-11T09:56:12.576Z,110
2017-05-11T09:56:54.470Z,110
2017-05-11T09:57:35.148Z,110
2017-05-11T09:58:15.891Z,110
2017-05-11T09:58:56.574Z,110
2017-05-11T09:59:37.319Z,110
2017-05-11T10:00:17.956Z,110
2017-05-11T10:00:58.619Z,110
2017-05-11T10:01:39.401Z,105
2017-05-11T10:02:20.041Z,115
2017-05-11T10:03:00.641Z,110
2017-05-11T10:03:46.043Z,115
2017-05-11T10:04:27.697Z,110
2017-05-11T10:05:08.392Z,110
2017-05-11T10:05:49.118Z,110
2017-05-11T10:06:29.771Z,110
2017-05-11T10:07:10.438Z,105
2017-05-11T10:07:51.066Z,105
2017-05-11T10:08:31.775Z,105
2017-05-11T10:09:13.509Z,105
2017-05-11T10:09:54.150Z,105
2017-05-11T10:10:40.778Z,110
2017-05-11T10:11:22.495Z,110
2017-05-11T10:12:03.192Z,110
2017-05-11T10:12:44.862Z,110
2017-05-11T10:13:27.596Z,110
2017-05-11T10:14:08.217Z,105
2017-05-11T10:14:48.890Z,105
2017-05-11T10:15:29.495Z,105
2017-05-11T10:16:11.219Z,110
2017-05-11T10:16:51.874Z,110
2017-05-11T10:17:32.590Z,110
2017-05-11T10:18:13.167Z,110
2017-05-11T10:18:53.962Z,110
2017-05-11T10:19:34.603Z,110
2017-05-11T10:20:15.312Z,110
2017-05-11T10:20:55.894Z,110
2017-05-11T10:21:36.575Z,110
2017-05-11T10:22:17.219Z,115
2017-05-11T10:22:57.903Z,115
2017-05-11T10:23:38.491Z,115
2017-05-11T10:24:19.204Z,115
2017-05-11T10:24:59.830Z,115
2017-05-11T10:25:40.503Z,115
2017-05-11T10:26:21.131Z,115
2017-05-11T10:27:02.780Z,115
2017-05-11T10:27:43.456Z,120
2017-05-11T10:28:24.089Z,120
2017-05-11T10:29:04.757Z,115
2017-05-11T10:29:47.367Z,115
2017-05-11T10:30:28.989Z,120
2017-05-11T10:31:09.554Z,120
2017-05-11T10:31:50.118Z,120
2017-05-11T10:32:31.867Z,120
2017-05-11T10:33:12.508Z,120
2017-05-11T10:33:53.121Z,120
2017-05-11T10:34:33.774Z,120
2017-05-11T10:35:14.429Z,115
2017-05-11T10:35:55.020Z,110
2017-05-11T10:36:35.610Z,110
2017-05-11T10:37:16.276Z,110
2017-05-11T10:37:57.894Z,110
2017-05-11T10:38:38.549Z,110
2017-05-11T10:39:19.134Z,110
2017-05-11T10:39:59.830Z,110
2017-05-11T10:40:40.469Z,110
2017-05-11T10:41:21.145Z,110
2017-05-11T10:42:01.818Z,105
2017-05-11T10:42:43.456Z,105
2017-05-11T10:43:26.059Z,110
2017-05-11T10:44:06.708Z,110
2017-05-11T10:44:47.263Z,110
2017-05-11T10:45:27.911Z,105
2017-05-11T10:46:08.560Z,110
2017-05-11T10:46:49.151Z,110
2017-05-11T10:47:29.823Z,105
2017-05-11T10:48:10.399Z,110
2017-05-11T10:48:51.021Z,110
2017-05-11T10:49:32.697Z,110
2017-05-11T10:50:13.296Z,110
2017-05-11T10:50:54.009Z,115
2017-05-11T10:51:34.591Z,115
2017-05-11T10:52:16.173Z,110
2017-05-11T10:52:56.855Z,110
2017-05-11T10:53:37.522Z,110
2017-05-11T10:54:18.088Z,110
2017-05-11T10:54:58.713Z,110
2017-05-11T10:55:39.335Z,110
2017-05-11T10:56:20.001Z,110
2017-05-11T10:57:00.655Z,110
2017-05-11T10:57:41.297Z,110
2017-05-11T10:58:21.946Z,110
2017-05-11T10:59:02.629Z,115
2017-05-11T10:59:43.297Z,115
2017-05-11T11:00:23.922Z,115
2017-05-11T11:01:05.524Z,115
2017-05-11T11:01:46.132Z,120
2017-05-11T11:02:27.744Z,120
2017-05-11T11:03:08.380Z,120
2017-05-11T11:03:49.084Z,120
2017-05-11T11:04:29.645Z,120
2017-05-11T11:05:10.231Z,125
2017-05-11T11:05:50.875Z,125
2017-05-11T11:06:32.462Z,125
2017-05-11T11:07:14.153Z,125
2017-05-11T11:07:56.128Z,130
2017-05-11T11:08:36.844Z,130
2017-05-11T11:09:18.655Z,130
2017-05-11T11:10:01.255Z,130
2017-05-11T11:10:41.948Z,130
2017-05-11T11:11:28.202Z,130
2017-05-11T11:12:14.691Z,125
2017-05-11T11:12:55.384Z,125
2017-05-11T11:13:36.106Z,125
2017-05-11T11:14:16.746Z,120
2017-05-11T11:14:58.014Z,115
2017-05-11T11:15:38.629Z,115
2017-05-11T11:16:19.191Z,115
2017-05-11T11:16:59.901Z,115
2017-05-11T11:17:40.517Z,120
2017-05-11T11:18:21.217Z,120
2017-05-11T11:19:02.083Z,120
2017-05-11T11:19:42.564Z,120
2017-05-11T11:20:23.207Z,120
2017-05-11T11:21:03.858Z,120
2017-05-11T11:21:44.516Z,120
2017-05-11T11:22:25.188Z,120
2017-05-11T11:23:06.836Z,125
2017-05-11T11:23:47.504Z,125
2017-05-11T11:24:28.220Z,120
2017-05-11T11:25:08.792Z,125
2017-05-11T11:25:49.525Z,130
2017-05-11T11:26:30.119Z,130
2017-05-11T11:27:10.866Z,135
2017-05-11T11:27:51.510Z,140
2017-05-11T11:28:32.321Z,140
2017-05-11T11:29:12.909Z,150
2017-05-11T11:29:53.489Z,155
2017-05-11T11:30:36.134Z,155
2017-05-11T11:31:16.730Z,155
2017-05-11T11:31:57.332Z,160
2017-05-11T11:32:37.958Z,165
2017-05-11T11:33:18.696Z,175
2017-05-11T11:33:59.299Z,185
2017-05-11T11:34:41.020Z,185
2017-05-11T11:35:23.806Z,195
2017-05-11T11:36:04.475Z,195
2017-05-11T11:36:45.109Z,195
2017-05-11T11:37:25.801Z,185
2017-05-11T11:38:06.581Z,185
2017-05-11T11:38:47.190Z,175
2017-05-11T11:39:32.526Z,175
2017-05-11T11:40:13.362Z,175
2017-05-11T11:40:54.005Z,170
2017-05-11T11:41:34.587Z,175
2017-05-11T11:42:15.312Z,185
2017-05-11T11:42:56.050Z,185
2017-05-11T11:43:36.707Z,195
2017-05-11T11:44:17.390Z,190
2017-05-11T11:44:58.006Z,190
2017-05-11T11:45:38.653Z,190